createdAt,value
2022-10-06T10:12:25.576Z,3.00
2022-10-06T10:15:05.340Z,2.90
2022-10-06T10:17:39.258Z,2.60
2022-10-06T10:20:24.310Z,2.80
2022-10-06T10:22:53.102Z,2.90
2022-10-06T10:25:47.523Z,2.20
2022-10-06T10:28:42.102Z,1.20
2022-10-06T10:32:03.765Z,1.60
2022-10-06T10:35:16.143Z,2.20
2022-10-06T10:37:55.699Z,1.10
2022-10-06T10:40:51.315Z,1.40
2022-10-06T10:43:33.133Z,1.90
2022-10-06T10:46:21.852Z,1.50
2022-10-06T10:49:26.122Z,2.10
2022-10-06T10:52:20.428Z,1.70
2022-10-06T10:55:36.008Z,2.20
2022-10-06T10:58:25.032Z,2.00
2022-10-06T11:00:58.092Z,1.70
2022-10-06T11:04:10.930Z,1.90
2022-10-06T11:06:52.331Z,1.80
2022-10-06T11:09:30.801Z,1.50
2022-10-06T11:12:22.332Z,2.10
2022-10-06T11:15:36.743Z,1.70
2022-10-06T11:18:46.527Z,2.70
2022-10-06T11:21:41.659Z,2.00
2022-10-06T11:24:43.541Z,2.80
2022-10-06T11:27:25.947Z,1.90
2022-10-06T11:30:05.860Z,1.80
2022-10-06T11:32:44.960Z,1.70
2022-10-06T11:35:26.350Z,1.60
2022-10-06T11:38:12.874Z,2.70
2022-10-06T11:41:10.004Z,1.60
2022-10-06T11:44:32.149Z,1.90
2022-10-06T11:47:10.222Z,2.20
2022-10-06T11:49:52.583Z,2.60
2022-10-06T11:52:29.986Z,1.60
2022-10-06T11:55:29.422Z,2.20
2022-10-06T11:58:37.889Z,1.60
2022-10-06T12:01:21.792Z,2.10
2022-10-06T12:04:11.495Z,3.20
2022-10-06T12:06:41.324Z,1.90
2022-10-06T12:09:25.630Z,2.90
2022-10-06T12:11:59.889Z,2.20
2022-10-06T12:16:55.280Z,2.10
2022-10-06T12:17:54.854Z,2.30
2022-10-06T12:20:54.047Z,2.80
2022-10-06T12:23:46.793Z,1.90
2022-10-06T12:26:50.381Z,2.30
2022-10-06T12:29:41.013Z,2.40
2022-10-06T12:32:18.444Z,2.10
2022-10-06T12:35:03.893Z,1.70
2022-10-06T12:37:53.094Z,2.00
2022-10-06T12:41:08.281Z,2.30
2022-10-06T12:43:55.179Z,2.30
2022-10-06T12:46:31.194Z,2.20
2022-10-06T12:49:31.383Z,2.30
2022-10-06T12:52:10.061Z,2.10
2022-10-06T12:55:03.272Z,1.50
2022-10-06T12:57:53.687Z,2.10
2022-10-06T13:00:32.616Z,1.20
2022-10-06T13:03:05.753Z,1.80
2022-10-06T13:05:35.728Z,1.50
2022-10-06T13:08:05.804Z,3.00
2022-10-06T13:10:33.861Z,1.80
2022-10-06T13:13:01.409Z,1.30
2022-10-06T13:15:35.050Z,2.20
2022-10-06T13:18:04.805Z,0.70
2022-10-06T13:20:35.725Z,1.10
2022-10-06T13:23:14.999Z,1.80
2022-10-06T13:25:44.827Z,0.90
2022-10-06T13:28:44.159Z,0.60
2022-10-06T13:31:24.191Z,1.50
2022-10-06T13:34:04.094Z,2.10
2022-10-06T13:36:35.111Z,1.20
2022-10-06T13:39:11.562Z,1.30
2022-10-06T13:42:02.694Z,0.80
2022-10-06T13:44:49.928Z,0.80
2022-10-06T13:47:22.220Z,1.10
2022-10-06T13:50:08.044Z,0.40
2022-10-06T13:52:47.612Z,1.00
2022-10-06T13:55:39.769Z,1.20
2022-10-06T13:58:09.618Z,0.70
2022-10-06T14:01:30.841Z,0.80
2022-10-06T14:04:46.157Z,0.30
2022-10-06T14:07:50.458Z,0.80
2022-10-06T14:10:41.724Z,0.50
2022-10-06T14:13:41.493Z,0.80
2022-10-06T14:16:17.695Z,0.70
2022-10-06T14:18:59.238Z,0.90
2022-10-06T14:21:41.279Z,1.00
2022-10-06T14:24:38.891Z,0.60
2022-10-06T14:27:06.469Z,1.50
2022-10-06T14:29:37.547Z,0.80
2022-10-06T14:32:27.862Z,1.80
2022-10-06T14:35:00.804Z,1.80
2022-10-06T14:37:46.378Z,0.50
2022-10-06T14:40:15.899Z,1.00
2022-10-06T14:42:54.874Z,0.90
2022-10-06T14:45:28.469Z,1.10
2022-10-06T14:47:57.074Z,1.50
2022-10-06T14:51:03.769Z,1.50
2022-10-06T14:54:11.082Z,1.70
2022-10-06T14:56:46.826Z,2.00
2022-10-06T14:59:56.526Z,1.80
2022-10-06T15:03:15.750Z,1.10
2022-10-06T15:06:08.891Z,1.80
2022-10-06T15:09:06.329Z,2.10
2022-10-06T15:11:40.243Z,2.00
2022-10-06T15:14:28.789Z,1.50
2022-10-06T15:17:12.448Z,1.30
2022-10-06T15:19:43.879Z,2.30
2022-10-06T15:22:10.609Z,1.80
2022-10-06T15:25:05.890Z,1.00
2022-10-06T15:28:12.757Z,1.80
2022-10-06T15:31:11.749Z,1.50
2022-10-06T15:34:19.439Z,2.20
2022-10-06T15:37:07.035Z,1.30
2022-10-06T15:39:57.979Z,3.10
2022-10-06T15:42:46.178Z,2.60
2022-10-06T15:45:13.353Z,2.10
2022-10-06T15:50:12.113Z,2.00
2022-10-06T15:52:44.816Z,2.00
2022-10-06T15:55:32.370Z,1.90
2022-10-06T15:57:59.719Z,2.00
2022-10-06T16:00:27.832Z,1.60
2022-10-06T16:03:40.957Z,2.00
2022-10-06T16:06:49.931Z,1.40
2022-10-06T16:09:19.640Z,1.70
2022-10-06T16:12:04.139Z,1.70
2022-10-06T16:14:44.599Z,2.10
2022-10-06T16:17:32.117Z,1.90
2022-10-06T16:20:22.107Z,2.10
2022-10-06T16:22:52.160Z,3.30
2022-10-06T16:25:21.041Z,3.40
2022-10-06T16:27:54.076Z,3.60
2022-10-06T16:30:34.119Z,5.10
2022-10-06T16:33:08.197Z,5.90
2022-10-06T16:36:05.694Z,5.90
2022-10-06T16:38:34.038Z,5.50
2022-10-06T16:41:21.029Z,6.20
2022-10-06T16:43:54.107Z,5.30
2022-10-06T16:47:19.096Z,5.60
2022-10-06T16:50:17.427Z,5.40
2022-10-06T16:52:45.580Z,5.50
2022-10-06T16:55:24.151Z,4.90
2022-10-06T17:00:59.869Z,6.40
2022-10-06T17:04:44.217Z,6.80
2022-10-06T17:07:32.912Z,4.50
2022-10-06T17:11:02.014Z,6.20
2022-10-06T17:13:51.622Z,4.60
2022-10-06T17:16:22.397Z,5.20
2022-10-06T17:19:25.514Z,4.70
2022-10-06T17:21:58.994Z,5.60
2022-10-06T17:24:36.745Z,5.30
2022-10-06T17:27:07.931Z,4.60
2022-10-06T17:29:39.255Z,5.00
2022-10-06T17:32:46.688Z,3.40
2022-10-06T17:35:15.196Z,5.10
2022-10-06T17:38:08.048Z,4.70
2022-10-06T17:40:55.902Z,4.80
2022-10-06T17:43:47.095Z,4.70
2022-10-06T17:46:21.866Z,5.90
2022-10-06T17:49:11.643Z,6.50
2022-10-06T17:51:58.588Z,6.70
2022-10-06T17:55:19.266Z,6.00
2022-10-06T17:58:26.138Z,6.10
2022-10-06T18:01:39.163Z,4.90
2022-10-06T18:04:28.819Z,7.40
2022-10-06T18:07:22.416Z,5.80
2022-10-06T18:10:48.028Z,5.90
2022-10-06T18:13:22.957Z,6.40
2022-10-06T18:16:00.324Z,4.70
2022-10-06T18:19:06.093Z,5.60
2022-10-06T18:21:41.413Z,4.80
2022-10-06T18:24:34.023Z,3.70
2022-10-06T18:27:01.616Z,6.00
2022-10-06T18:30:33.990Z,3.80
2022-10-06T18:36:10.967Z,6.20
2022-10-06T18:36:46.073Z,5.30
2022-10-06T18:39:40.004Z,6.10
2022-10-06T18:42:08.873Z,4.80
2022-10-06T18:45:01.829Z,5.90
2022-10-06T18:48:30.131Z,5.10
2022-10-06T18:51:32.263Z,7.80
2022-10-06T18:54:04.828Z,5.40
2022-10-06T18:57:00.340Z,6.30
2022-10-06T18:59:45.963Z,6.20
2022-10-06T19:02:13.148Z,6.80
2022-10-06T19:05:18.912Z,8.00
2022-10-06T19:07:46.374Z,5.60
2022-10-06T19:10:16.892Z,6.30
2022-10-06T19:13:08.556Z,4.40
2022-10-06T19:15:55.810Z,3.70
2022-10-06T19:18:42.811Z,5.00
2022-10-06T19:21:39.903Z,4.70
2022-10-06T19:24:30.594Z,6.00
2022-10-06T19:27:28.814Z,4.70
2022-10-06T19:30:06.144Z,4.50
2022-10-06T19:32:56.111Z,4.80
2022-10-06T19:35:58.263Z,4.10
2022-10-06T19:38:46.403Z,5.50
2022-10-06T19:41:54.127Z,4.00
2022-10-06T19:44:35.773Z,4.10
2022-10-06T19:47:06.647Z,4.70
2022-10-06T19:49:44.611Z,4.90
2022-10-06T19:52:26.768Z,5.50
2022-10-06T19:58:10.915Z,4.70
2022-10-06T20:01:00.507Z,3.90
2022-10-06T20:03:27.345Z,3.80
2022-10-06T20:06:02.929Z,5.40
2022-10-06T20:08:49.931Z,4.20
2022-10-06T20:11:21.233Z,3.00
2022-10-06T20:13:51.606Z,3.80
2022-10-06T20:16:21.838Z,5.20
2022-10-06T20:19:09.340Z,4.40
2022-10-06T20:21:51.173Z,4.00
2022-10-06T20:24:25.590Z,3.60
2022-10-06T20:27:00.170Z,3.40
2022-10-06T20:29:32.418Z,3.50
2022-10-06T20:32:19.642Z,4.10
2022-10-06T20:34:56.406Z,3.80
2022-10-06T20:37:24.788Z,4.40
2022-10-06T20:40:10.442Z,3.40
2022-10-06T20:42:45.806Z,4.00
2022-10-06T20:45:16.103Z,3.80
2022-10-06T20:48:01.777Z,4.00
2022-10-06T20:50:59.541Z,4.10
2022-10-06T20:53:47.581Z,4.00
2022-10-06T20:56:15.619Z,2.80
2022-10-06T20:58:46.479Z,3.70
2022-10-06T21:01:16.241Z,3.10
2022-10-06T21:04:07.684Z,3.50
2022-10-06T21:06:40.947Z,3.30
2022-10-06T21:09:28.925Z,3.90
2022-10-06T21:14:29.562Z,3.80
2022-10-06T21:17:19.894Z,5.50
2022-10-06T21:20:09.401Z,4.60
2022-10-06T21:23:06.059Z,4.80
2022-10-06T21:25:38.056Z,4.90
2022-10-06T21:28:24.936Z,4.00
2022-10-06T21:31:22.121Z,5.20
2022-10-06T21:33:52.417Z,5.10
2022-10-06T21:36:46.695Z,6.20
2022-10-06T21:39:17.585Z,7.30
2022-10-06T21:42:21.007Z,6.80
2022-10-06T21:44:51.001Z,7.90
2022-10-06T21:47:24.990Z,8.20
2022-10-06T21:50:10.301Z,7.30
2022-10-06T21:53:17.725Z,7.70
2022-10-06T21:56:21.594Z,9.10
2022-10-06T21:59:04.175Z,9.40
